Time;durP1;ratioP1;P1;durP2;ratioP2;P2;SDS_P1;SDS_P2;PMS_P1;PMS_P2;Temp;Humidity;BMP_temperature;BMP_pressure;BME280_temperature;BME280_humidity;BME280_pressure;Samples;Min_cycle;Max_cycle;Signal;HPM_P1;HPM_P2
2023/06/06 18:47:59;;;;;;;11.30;4.30;;;;;;;25.80;27.43;100488.81;105131;1289;2098043;-86
2023/06/06 18:51:46;;;;;;;9.00;3.60;;;;;;;25.70;26.99;100490.09;88938;1270;8183933;-87
2023/06/06 18:55:23;;;;;;;6.20;3.10;;;;;;;25.53;27.00;100493.77;101829;1270;5378150;-84
2023/06/06 18:59:56;;;;;;;13.20;4.20;;;;;;;25.53;27.18;100498.89;103301;1308;5984093;-88
2023/06/06 19:03:21;;;;;;;12.20;4.30;;;;;;;25.27;27.59;100507.11;109352;1281;23199;-86
2023/06/06 19:11:30;;;;;;;7.50;4.00;;;;;;;25.00;27.88;100503.70;109390;1280;21946;-87
2023/06/06 19:16:32;;;;;;;;;;;;;;;;;;;;;
2023/06/06 19:23:37;;;;;;;10.90;3.40;;;;;;;24.65;28.43;100514.09;108691;1291;22327;-86
2023/06/06 19:26:47;;;;;;;;;;;;;;;;;;;;;
2023/06/06 19:29:37;;;;;;;5.40;3.40;;;;;;;24.54;28.73;100521.90;108760;1290;23757;-86
2023/06/06 19:33:59;;;;;;;;;;;;;;;;;;;;;
2023/06/06 19:37:18;;;;;;;10.20;5.60;;;;;;;24.41;29.00;100529.52;107886;1298;23789;-86
2023/06/06 19:40:50;;;;;;;;;;;;;;;;;;;;;
2023/06/06 19:59:36;;;;;;;15.60;14.20;;;;;;;23.74;35.69;100568.69;102899;1315;5651950;-89
2023/06/06 20:13:04;;;;;;;8.30;5.50;;;;;;;24.73;35.80;100576.61;108560;1285;548315;-83
2023/06/06 20:15:43;;;;;;;8.80;6.10;;;;;;;24.69;36.71;100588.83;106684;1260;5404199;-82
2023/06/06 20:18:36;;;;;;;13.90;5.70;;;;;;;24.19;37.34;100591.80;111387;1256;23719;-87
2023/06/06 20:21:44;;;;;;;9.30;5.80;;;;;;;23.80;38.23;100588.56;111435;1255;21957;-86
2023/06/06 20:24:42;;;;;;;7.10;5.90;;;;;;;23.58;38.83;100585.20;111172;1255;21976;-86
2023/06/06 20:27:33;;;;;;;21.10;14.30;;;;;;;23.45;39.12;100586.55;111233;1254;22037;-85
2023/06/06 20:30:06;;;;;;;10.60;8.90;;;;;;;23.37;39.41;100586.85;111239;1255;21954;-85
2023/06/06 20:32:57;;;;;;;12.30;6.90;;;;;;;23.29;39.59;100587.61;111345;1255;21974;-84
2023/06/06 20:35:53;;;;;;;15.50;6.90;;;;;;;23.19;39.96;100587.38;111472;1253;21968;-86
2023/06/06 20:38:33;;;;;;;12.70;7.30;;;;;;;23.14;40.18;100592.23;111376;1255;21960;-85
2023/06/06 20:41:10;;;;;;;9.60;6.10;;;;;;;23.02;40.42;100597.02;111248;1253;21951;-85
2023/06/06 20:43:46;;;;;;;13.30;7.00;;;;;;;22.88;40.71;100597.08;110936;1261;23008;-84
2023/06/06 20:46:39;;;;;;;9.70;6.90;;;;;;;22.72;41.08;100599.91;111034;1260;21975;-84
2023/06/06 20:49:20;;;;;;;9.30;6.00;;;;;;;22.62;41.41;100602.89;110142;1267;22040;-85
2023/06/06 20:52:36;;;;;;;11.70;6.50;;;;;;;22.47;41.84;100601.80;110195;1266;23018;-85
2023/06/06 20:55:14;;;;;;;12.50;7.90;;;;;;;22.40;42.03;100604.92;110003;1268;22031;-85
2023/06/06 20:57:58;;;;;;;11.80;7.50;;;;;;;22.36;42.19;100601.84;110027;1268;23051;-85
2023/06/06 21:00:38;;;;;;;9.00;6.80;;;;;;;22.31;42.35;100601.89;109636;1273;22702;-83
2023/06/06 21:03:27;;;;;;;;;;;;;;;;;;;;;
2023/06/06 21:06:27;;;;;;;14.00;7.10;;;;;;;22.18;42.82;100605.59;110350;1269;22989;-84
2023/06/06 21:09:50;;;;;;;10.90;6.60;;;;;;;22.06;43.16;100607.10;110943;1262;22924;-84
2023/06/06 21:12:35;;;;;;;11.00;6.40;;;;;;;21.99;43.36;100607.19;110838;1258;22029;-86
2023/06/06 21:15:18;;;;;;;9.00;6.50;;;;;;;21.94;43.69;100611.63;110036;1262;21973;-84
2023/06/06 21:17:57;;;;;;;9.60;7.50;;;;;;;21.92;43.89;100613.09;109787;1264;22065;-83
2023/06/06 21:20:44;;;;;;;;;;;;;;;;;;;;;
2023/06/06 21:23:47;;;;;;;12.30;6.70;;;;;;;21.84;44.06;100610.66;110354;1267;23071;-87
2023/06/06 21:26:37;;;;;;;12.30;6.90;;;;;;;21.71;44.49;100609.63;109908;1271;21938;-86
2023/06/06 21:29:37;;;;;;;11.00;6.50;;;;;;;21.56;44.79;100606.90;109766;1271;22456;-87
2023/06/06 21:32:45;;;;;;;11.00;7.30;;;;;;;21.41;45.19;100611.10;109753;1265;21986;-86
2023/06/06 21:36:05;;;;;;;16.20;7.60;;;;;;;21.30;45.46;100605.73;110290;1251;23045;-86
2023/06/06 21:39:29;;;;;;;10.10;7.40;;;;;;;21.23;45.63;100604.86;110654;1262;21987;-86
2023/06/06 21:42:27;;;;;;;8.80;6.90;;;;;;;21.16;45.73;100602.64;110806;1262;21966;-87
2023/06/06 21:45:37;;;;;;;;;;;;;;;;;;;;;
2023/06/06 21:48:46;;;;;;;12.70;7.80;;;;;;;21.01;46.09;100604.46;110472;1254;22881;-86
2023/06/06 21:51:54;;;;;;;9.10;6.60;;;;;;;20.95;46.38;100603.88;110122;1266;23751;-88
2023/06/06 21:55:16;;;;;;;8.30;7.20;;;;;;;20.92;46.47;100603.44;110584;1266;21928;-89
2023/06/06 21:58:38;;;;;;;8.60;7.40;;;;;;;20.86;46.62;100600.66;111170;1246;21978;-88
2023/06/06 22:01:23;;;;;;;12.00;8.10;;;;;;;20.84;46.61;100597.81;111182;1258;21963;-86
2023/06/06 22:04:30;;;;;;;10.70;7.70;;;;;;;20.82;46.91;100596.58;111188;1258;22389;-88
2023/06/06 22:07:42;;;;;;;10.60;7.40;;;;;;;20.77;47.05;100593.58;111227;1258;21985;-86
2023/06/06 22:10:37;;;;;;;;;;;;;;;;;;;;;
2023/06/06 22:13:32;;;;;;;9.30;7.40;;;;;;;20.69;47.30;100600.52;111335;1258;23023;-89
2023/06/06 22:16:51;;;;;;;11.10;6.80;;;;;;;20.65;47.54;100604.42;110919;1265;23712;-87
2023/06/06 22:19:58;;;;;;;11.60;7.70;;;;;;;20.59;47.78;100603.42;110456;1265;22030;-88
2023/06/06 22:23:33;;;;;;;15.90;11.60;;;;;;;20.52;47.91;100597.79;110993;1263;22059;-88
2023/06/06 22:27:34;;;;;;;;;;;;;;;;;;;;;
2023/06/06 22:30:42;;;;;;;12.10;7.60;;;;;;;20.31;48.45;100590.29;110288;1268;22078;-89
2023/06/06 22:33:43;;;;;;;14.90;8.60;;;;;;;20.24;48.88;100585.70;110034;1268;21997;-87
2023/06/06 22:36:30;;;;;;;10.70;8.00;;;;;;;20.17;49.17;100580.44;109935;1268;23702;-85
2023/06/06 22:39:45;;;;;;;17.40;7.90;;;;;;;20.06;49.30;100583.88;109992;1268;21982;-85
2023/06/06 22:43:10;;;;;;;11.90;8.50;;;;;;;19.96;49.57;100591.70;110490;1265;21964;-87
2023/06/06 22:46:05;;;;;;;12.00;8.60;;;;;;;19.87;49.95;100593.02;110940;1265;22191;-86
2023/06/06 22:49:03;;;;;;;14.20;9.30;;;;;;;19.82;50.05;100593.23;110492;1265;22051;-87
2023/06/06 22:52:16;;;;;;;;;;;;;;;;;;;;;
2023/06/06 22:55:35;;;;;;;10.70;9.00;;;;;;;19.69;50.50;100595.20;110675;1265;21988;-85
2023/06/06 22:58:37;;;;;;;;;;;;;;;;;;;;;
2023/06/06 23:01:50;;;;;;;;;;;;;;;;;;;;;
2023/06/06 23:04:34;;;;;;;11.20;10.10;;;;;;;19.53;51.09;100595.11;110813;1264;21984;-84
2023/06/06 23:08:02;;;;;;;10.80;7.80;;;;;;;19.46;51.32;100589.55;110073;1270;22015;-84
2023/06/06 23:11:28;;;;;;;10.90;7.50;;;;;;;19.42;51.59;100582.67;109476;1275;21894;-84
2023/06/06 23:14:54;;;;;;;13.10;7.40;;;;;;;19.36;51.91;100580.07;109292;1275;22235;-85
2023/06/06 23:17:36;;;;;;;11.40;9.00;;;;;;;19.30;52.32;100573.06;109387;1275;23093;-84
2023/06/06 23:20:35;;;;;;;10.00;8.40;;;;;;;19.24;52.34;100570.27;109469;1275;22001;-87
2023/06/06 23:23:25;;;;;;;11.10;8.20;;;;;;;19.17;52.48;100569.40;109348;1273;23917;-83
2023/06/06 23:26:05;;;;;;;9.90;9.00;;;;;;;19.12;52.63;100566.08;109704;1268;23158;-85
2023/06/06 23:29:37;;;;;;;9.60;8.40;;;;;;;19.02;52.76;100564.27;110263;1268;21977;-87
2023/06/06 23:32:49;;;;;;;8.80;7.80;;;;;;;18.94;52.85;100565.20;109492;1275;21990;-86
2023/06/06 23:35:50;;;;;;;;;;;;;;;;;;;;;
2023/06/06 23:39:00;;;;;;;12.50;8.50;;;;;;;18.77;53.42;100558.74;109509;1275;21982;-86
2023/06/06 23:41:55;;;;;;;11.50;8.40;;;;;;;18.74;53.51;100560.38;109695;1270;21977;-86
2023/06/06 23:48:12;;;;;;;10.90;7.90;;;;;;;18.62;54.02;100558.69;110123;1268;21970;-85
2023/06/06 23:51:25;;;;;;;13.70;8.70;;;;;;;18.57;54.19;100555.68;110494;1266;21986;-85
2023/06/06 23:54:38;;;;;;;11.50;8.50;;;;;;;18.52;54.40;100556.36;110535;1266;21986;-84
2023/06/06 23:57:43;;;;;;;;;;;;;;;;;;;;;
